createdAt,value
2023-04-14T00:00:39.892Z,100.00
2023-04-14T00:03:26.431Z,100.00
2023-04-14T00:06:13.031Z,100.00
2023-04-14T00:08:59.796Z,100.00
2023-04-14T00:11:46.101Z,100.00
2023-04-14T00:14:32.605Z,100.00
2023-04-14T00:17:19.103Z,100.00
2023-04-14T00:20:06.530Z,100.00
2023-04-14T00:22:52.825Z,100.00
2023-04-14T00:25:39.433Z,100.00
2023-04-14T00:28:26.118Z,100.00
2023-04-14T00:31:12.687Z,100.00
2023-04-14T00:33:59.015Z,100.00
2023-04-14T00:36:45.545Z,100.00
2023-04-14T00:39:32.061Z,100.00
2023-04-14T00:42:19.110Z,100.00
2023-04-14T00:45:05.767Z,100.00
2023-04-14T00:47:52.508Z,100.00
2023-04-14T00:50:39.455Z,100.00
2023-04-14T00:53:27.358Z,100.00
2023-04-14T00:56:14.157Z,100.00
2023-04-14T00:59:02.067Z,100.00
2023-04-14T01:01:49.031Z,100.00
2023-04-14T01:04:52.705Z,100.00
2023-04-14T01:07:41.337Z,100.00
2023-04-14T01:10:34.296Z,100.00
2023-04-14T01:13:35.392Z,100.00
2023-04-14T01:16:50.242Z,100.00
2023-04-14T01:20:14.623Z,100.00
2023-04-14T01:23:16.136Z,100.00
2023-04-14T01:26:12.441Z,100.00
2023-04-14T01:29:43.658Z,100.00
2023-04-14T01:32:43.117Z,100.00
2023-04-14T01:35:37.521Z,100.00
2023-04-14T01:38:27.481Z,100.00
2023-04-14T01:41:16.863Z,100.00
2023-04-14T01:44:06.534Z,100.00
2023-04-14T01:47:00.350Z,100.00
2023-04-14T01:49:51.504Z,100.00
2023-04-14T01:52:39.560Z,100.00
2023-04-14T01:55:29.068Z,100.00
2023-04-14T01:58:18.937Z,100.00
2023-04-14T02:01:06.370Z,100.00
2023-04-14T02:03:53.260Z,100.00
2023-04-14T02:06:42.376Z,100.00
2023-04-14T02:09:31.253Z,100.00
2023-04-14T02:12:19.734Z,100.00
2023-04-14T02:15:07.260Z,100.00
2023-04-14T02:17:57.039Z,100.00
2023-04-14T02:20:47.933Z,100.00
2023-04-14T02:23:34.399Z,100.00
2023-04-14T02:26:23.846Z,100.00
2023-04-14T02:29:14.076Z,100.00
2023-04-14T02:32:04.693Z,100.00
2023-04-14T02:35:04.244Z,100.00
2023-04-14T02:37:56.281Z,100.00
2023-04-14T02:40:44.880Z,100.00
2023-04-14T02:43:36.534Z,100.00
2023-04-14T02:46:25.513Z,100.00
2023-04-14T02:49:14.914Z,100.00
2023-04-14T02:52:05.960Z,100.00
2023-04-14T02:54:53.935Z,100.00
2023-04-14T02:57:41.515Z,100.00
2023-04-14T03:00:29.652Z,100.00
2023-04-14T03:03:17.241Z,100.00
2023-04-14T03:06:08.379Z,100.00
2023-04-14T03:08:57.244Z,100.00
2023-04-14T03:11:46.499Z,100.00
2023-04-14T03:14:37.935Z,100.00
2023-04-14T03:17:26.085Z,100.00
2023-04-14T03:20:14.242Z,100.00
2023-04-14T03:23:04.971Z,100.00
2023-04-14T03:25:58.110Z,100.00
2023-04-14T03:28:50.820Z,100.00
2023-04-14T03:31:39.566Z,100.00
2023-04-14T03:34:30.794Z,100.00
2023-04-14T03:37:20.652Z,100.00
2023-04-14T03:40:11.419Z,100.00
2023-04-14T03:43:02.503Z,100.00
2023-04-14T03:45:51.657Z,100.00
2023-04-14T03:48:42.792Z,100.00
2023-04-14T03:51:32.816Z,100.00
2023-04-14T03:54:23.345Z,100.00
2023-04-14T03:57:12.142Z,100.00
2023-04-14T04:00:05.228Z,100.00
2023-04-14T04:03:01.223Z,100.00
2023-04-14T04:05:51.446Z,100.00
2023-04-14T04:08:40.331Z,100.00
2023-04-14T04:11:29.944Z,100.00
2023-04-14T04:14:21.508Z,100.00
2023-04-14T04:17:09.890Z,100.00
2023-04-14T04:19:58.606Z,100.00
2023-04-14T04:22:49.694Z,100.00
2023-04-14T04:25:38.247Z,100.00
2023-04-14T04:28:32.578Z,100.00
2023-04-14T04:31:20.317Z,100.00
2023-04-14T04:34:08.195Z,100.00
2023-04-14T04:37:00.716Z,100.00
2023-04-14T04:39:50.005Z,100.00
2023-04-14T04:42:42.660Z,100.00
2023-04-14T04:46:03.151Z,100.00
2023-04-14T04:48:52.588Z,100.00
2023-04-14T04:51:39.253Z,100.00
2023-04-14T04:54:27.123Z,100.00
2023-04-14T04:57:13.537Z,100.00
2023-04-14T05:00:00.178Z,100.00
2023-04-14T05:02:46.578Z,100.00
2023-04-14T05:05:37.185Z,100.00
2023-04-14T05:08:23.352Z,100.00
2023-04-14T05:11:09.967Z,100.00
2023-04-14T05:13:56.279Z,100.00
2023-04-14T05:16:42.808Z,100.00
2023-04-14T05:19:28.945Z,100.00
2023-04-14T05:22:15.958Z,100.00
2023-04-14T05:25:02.179Z,100.00
2023-04-14T05:27:48.583Z,100.00
2023-04-14T05:30:35.048Z,100.00
2023-04-14T05:33:21.692Z,100.00
2023-04-14T05:36:08.446Z,100.00
2023-04-14T05:38:54.891Z,100.00
2023-04-14T05:41:41.115Z,100.00
2023-04-14T05:44:27.663Z,100.00
2023-04-14T05:47:14.431Z,100.00
2023-04-14T05:50:00.915Z,100.00
2023-04-14T05:52:47.148Z,100.00
2023-04-14T05:55:33.501Z,100.00
2023-04-14T05:58:19.919Z,100.00
2023-04-14T06:01:06.441Z,100.00
2023-04-14T06:03:52.853Z,100.00
2023-04-14T06:06:39.612Z,100.00
2023-04-14T06:09:26.214Z,100.00
2023-04-14T06:12:14.084Z,100.00
2023-04-14T06:15:00.731Z,100.00
2023-04-14T06:17:48.146Z,100.00
2023-04-14T06:20:35.559Z,98.33
2023-04-14T06:23:21.968Z,95.82
2023-04-14T06:26:08.944Z,95.54
2023-04-14T06:28:57.266Z,94.60
2023-04-14T06:31:43.919Z,95.65
2023-04-14T06:34:30.530Z,92.84
2023-04-14T06:37:16.921Z,90.56
2023-04-14T06:40:03.479Z,91.71
2023-04-14T06:42:49.985Z,89.85
2023-04-14T06:45:36.584Z,87.77
2023-04-14T06:48:23.204Z,88.84
2023-04-14T06:51:13.625Z,85.55
2023-04-14T06:54:00.702Z,87.35
2023-04-14T06:56:47.446Z,85.45
2023-04-14T06:59:33.807Z,86.96
2023-04-14T07:02:20.386Z,87.34
2023-04-14T07:05:07.641Z,87.65
2023-04-14T07:07:54.272Z,84.44
2023-04-14T07:13:28.090Z,82.71
2023-04-14T07:16:14.362Z,82.37
2023-04-14T07:19:01.100Z,82.73
2023-04-14T07:21:47.932Z,80.66
2023-04-14T07:24:34.168Z,79.72
2023-04-14T07:27:20.946Z,79.94
2023-04-14T07:30:08.110Z,78.22
2023-04-14T07:32:54.641Z,79.02
2023-04-14T07:35:48.248Z,78.05
2023-04-14T07:38:45.350Z,78.61
2023-04-14T07:41:32.166Z,76.87
2023-04-14T07:44:18.400Z,77.03
2023-04-14T07:47:04.743Z,77.36
2023-04-14T07:49:53.025Z,77.61
2023-04-14T07:52:39.235Z,77.10
2023-04-14T07:55:27.578Z,75.55
2023-04-14T07:58:15.785Z,77.25
2023-04-14T08:01:03.070Z,75.85
2023-04-14T08:03:50.924Z,76.88
2023-04-14T08:06:37.753Z,75.56
2023-04-14T08:09:24.121Z,75.43
2023-04-14T08:12:10.335Z,74.77
2023-04-14T08:14:57.139Z,74.45
2023-04-14T08:17:43.395Z,74.28
2023-04-14T08:20:29.852Z,74.09
2023-04-14T08:23:16.283Z,73.58
2023-04-14T08:26:03.955Z,72.90
2023-04-14T08:28:50.745Z,72.44
2023-04-14T08:31:37.207Z,72.65
2023-04-14T08:34:28.596Z,72.75
2023-04-14T08:37:15.651Z,71.14
2023-04-14T08:40:01.956Z,70.88
2023-04-14T08:42:48.329Z,69.77
2023-04-14T08:45:36.086Z,71.04
2023-04-14T08:48:27.655Z,69.40
2023-04-14T08:51:22.442Z,69.51
2023-04-14T08:54:10.567Z,70.85
2023-04-14T08:56:58.660Z,66.90
2023-04-14T08:59:45.494Z,67.50
2023-04-14T09:02:35.838Z,68.20
2023-04-14T09:05:23.276Z,68.06
2023-04-14T09:08:10.899Z,67.40
2023-04-14T09:10:58.104Z,66.04
2023-04-14T09:13:45.499Z,65.98
2023-04-14T09:16:32.772Z,64.61
2023-04-14T09:19:24.784Z,65.70
2023-04-14T09:22:11.856Z,64.15
2023-04-14T09:24:58.559Z,64.37
2023-04-14T09:27:45.478Z,65.64
2023-04-14T09:30:32.100Z,65.13
2023-04-14T09:33:22.991Z,63.35
2023-04-14T09:36:24.304Z,66.48
2023-04-14T09:39:20.208Z,63.23
2023-04-14T09:42:07.079Z,63.23
2023-04-14T09:44:57.758Z,63.04
2023-04-14T09:47:44.814Z,57.74
2023-04-14T09:50:31.853Z,57.13
2023-04-14T09:53:28.508Z,57.04
2023-04-14T09:56:16.053Z,56.83
2023-04-14T09:59:03.553Z,56.76
2023-04-14T10:01:50.594Z,58.56
2023-04-14T10:04:37.986Z,55.85
2023-04-14T10:07:27.298Z,55.70
2023-04-14T10:10:14.083Z,55.92
2023-04-14T10:13:00.829Z,55.77
2023-04-14T10:15:47.283Z,54.01
2023-04-14T10:18:33.833Z,53.11
2023-04-14T10:21:22.794Z,54.57
2023-04-14T10:24:10.056Z,52.91
2023-04-14T10:26:57.603Z,53.51
2023-04-14T10:29:43.870Z,53.60
2023-04-14T10:32:34.281Z,53.02
2023-04-14T10:35:21.329Z,52.85
2023-04-14T10:38:07.886Z,51.99
2023-04-14T10:40:54.162Z,50.73
2023-04-14T10:43:40.598Z,49.42
2023-04-14T10:46:43.809Z,49.45
2023-04-14T10:49:35.470Z,51.71
2023-04-14T10:52:22.546Z,51.57
2023-04-14T10:55:09.337Z,49.24
2023-04-14T10:58:08.771Z,48.16
2023-04-14T11:00:58.311Z,48.34
2023-04-14T11:03:45.200Z,46.44
2023-04-14T11:06:54.396Z,46.92
2023-04-14T11:09:42.537Z,46.91
2023-04-14T11:12:28.956Z,49.78
2023-04-14T11:15:18.206Z,46.89
2023-04-14T11:18:13.647Z,44.50
2023-04-14T11:21:13.222Z,44.06
2023-04-14T11:24:00.877Z,44.42
2023-04-14T11:26:47.821Z,45.74
2023-04-14T11:29:34.356Z,46.03
2023-04-14T11:32:21.336Z,44.05
2023-04-14T11:35:09.712Z,45.20
2023-04-14T11:37:57.876Z,42.20
2023-04-14T11:40:49.222Z,41.43
2023-04-14T11:43:37.949Z,40.32
2023-04-14T11:46:25.044Z,40.10
2023-04-14T11:49:11.976Z,41.04
2023-04-14T11:52:04.709Z,41.57
2023-04-14T11:54:51.634Z,39.87
2023-04-14T11:57:37.930Z,42.72
2023-04-14T12:00:24.695Z,42.08
2023-04-14T12:03:11.428Z,39.30
2023-04-14T12:06:03.206Z,40.21
2023-04-14T12:08:54.261Z,38.80
2023-04-14T12:11:40.801Z,41.31
2023-04-14T12:14:27.373Z,35.02
2023-04-14T12:17:17.071Z,36.35
2023-04-14T12:20:05.479Z,38.38
2023-04-14T12:22:52.162Z,39.81
2023-04-14T12:25:39.543Z,37.45
2023-04-14T12:28:30.731Z,36.51
2023-04-14T12:31:28.514Z,37.23
2023-04-14T12:34:14.960Z,37.04
2023-04-14T12:37:12.735Z,34.27
2023-04-14T12:40:01.248Z,35.85
2023-04-14T12:42:51.341Z,38.47
2023-04-14T12:45:48.600Z,33.39
2023-04-14T12:48:43.583Z,33.36
2023-04-14T12:51:39.448Z,32.27
2023-04-14T12:54:26.383Z,31.86
2023-04-14T12:57:13.115Z,32.52
2023-04-14T13:00:01.136Z,29.59
2023-04-14T13:02:47.785Z,29.95
2023-04-14T13:05:34.411Z,33.15
2023-04-14T13:08:20.920Z,34.04
2023-04-14T13:11:07.315Z,33.10
2023-04-14T13:13:54.155Z,32.30
2023-04-14T13:16:40.579Z,34.41
2023-04-14T13:19:27.170Z,35.60
2023-04-14T13:22:14.036Z,34.38
2023-04-14T13:25:00.552Z,32.62
2023-04-14T13:27:46.946Z,34.05
2023-04-14T13:30:33.512Z,33.68
2023-04-14T13:33:20.984Z,35.44
2023-04-14T13:36:07.679Z,37.08
2023-04-14T13:38:54.578Z,34.68
2023-04-14T13:41:40.972Z,33.44
2023-04-14T13:44:27.610Z,33.75
2023-04-14T13:47:14.160Z,35.89
2023-04-14T13:50:01.011Z,33.74
2023-04-14T13:52:47.214Z,32.72
2023-04-14T13:55:34.978Z,34.23
2023-04-14T13:58:21.361Z,31.24
2023-04-14T14:01:12.068Z,33.78
2023-04-14T14:03:58.493Z,34.43
2023-04-14T14:06:45.548Z,33.43
2023-04-14T14:09:31.911Z,30.92
2023-04-14T14:12:18.299Z,31.16
2023-04-14T14:15:05.787Z,30.24
2023-04-14T14:17:53.201Z,32.28
2023-04-14T14:20:39.876Z,33.16
2023-04-14T14:23:26.336Z,34.23
2023-04-14T14:26:14.086Z,34.11
2023-04-14T14:29:00.398Z,32.83
2023-04-14T14:31:46.973Z,31.49
2023-04-14T14:34:33.542Z,30.09
2023-04-14T14:37:21.216Z,29.58
2023-04-14T14:40:08.337Z,29.43
2023-04-14T14:42:54.857Z,29.11
2023-04-14T14:45:41.490Z,29.87
2023-04-14T14:48:28.248Z,32.35
2023-04-14T14:51:14.558Z,31.05
2023-04-14T14:54:09.298Z,31.22
2023-04-14T14:56:57.443Z,30.70
2023-04-14T14:59:43.930Z,29.88
2023-04-14T15:02:30.227Z,32.07
2023-04-14T15:05:16.906Z,31.18
2023-04-14T15:08:03.702Z,32.96
2023-04-14T15:10:53.155Z,32.18
2023-04-14T15:13:39.334Z,31.64
2023-04-14T15:16:26.587Z,30.86
2023-04-14T15:19:13.313Z,31.29
2023-04-14T15:22:01.097Z,34.00
2023-04-14T15:24:47.396Z,34.45
2023-04-14T15:27:33.653Z,33.42
2023-04-14T15:30:23.574Z,31.93
2023-04-14T15:33:10.416Z,33.29
2023-04-14T15:35:56.991Z,34.51
2023-04-14T15:38:43.496Z,34.53
2023-04-14T15:41:29.748Z,34.01
2023-04-14T15:44:16.134Z,34.10
2023-04-14T15:47:03.050Z,33.61
2023-04-14T15:50:01.341Z,34.94
2023-04-14T15:52:57.505Z,34.54
2023-04-14T15:55:44.428Z,34.83
2023-04-14T15:58:31.125Z,35.20
2023-04-14T16:01:17.745Z,35.75
2023-04-14T16:04:04.679Z,33.64
2023-04-14T16:06:51.271Z,33.82
2023-04-14T16:09:37.777Z,34.12
2023-04-14T16:12:24.301Z,34.69
2023-04-14T16:15:11.422Z,35.35
2023-04-14T16:17:58.068Z,35.24
2023-04-14T16:20:44.309Z,34.70
2023-04-14T16:23:30.836Z,34.41
2023-04-14T16:26:17.276Z,34.03
2023-04-14T16:29:03.283Z,36.57
2023-04-14T16:31:49.834Z,34.20
2023-04-14T16:34:36.419Z,34.51
2023-04-14T16:37:25.829Z,33.25
2023-04-14T16:40:12.411Z,33.57
2023-04-14T16:42:58.635Z,35.40
2023-04-14T16:45:46.522Z,35.59
2023-04-14T16:48:33.235Z,35.56
2023-04-14T16:51:19.930Z,36.78
2023-04-14T16:54:06.203Z,37.32
2023-04-14T16:56:53.136Z,37.99
2023-04-14T16:59:39.865Z,35.89
2023-04-14T17:02:26.608Z,37.36
2023-04-14T17:05:15.831Z,37.36
2023-04-14T17:08:03.608Z,36.34
2023-04-14T17:10:50.609Z,36.84
2023-04-14T17:13:37.082Z,36.97
2023-04-14T17:16:23.553Z,37.05
2023-04-14T17:19:10.071Z,37.26
2023-04-14T17:21:56.817Z,38.19
2023-04-14T17:24:44.330Z,38.77
2023-04-14T17:27:30.885Z,37.84
2023-04-14T17:30:17.852Z,37.67
2023-04-14T17:33:06.344Z,37.61
2023-04-14T17:35:56.563Z,39.58
2023-04-14T17:38:43.407Z,40.79
2023-04-14T17:41:30.017Z,41.44
2023-04-14T17:44:16.302Z,40.08
2023-04-14T17:47:04.906Z,41.50
2023-04-14T17:49:52.515Z,41.89
2023-04-14T17:52:39.929Z,43.31
2023-04-14T17:55:26.137Z,42.77
2023-04-14T17:58:12.508Z,42.66
2023-04-14T18:00:59.249Z,45.06
2023-04-14T18:03:45.507Z,42.32
2023-04-14T18:06:35.873Z,42.10
2023-04-14T18:09:22.628Z,41.23
2023-04-14T18:12:08.758Z,42.50
2023-04-14T18:14:55.132Z,46.06
2023-04-14T18:17:43.332Z,46.45
2023-04-14T18:20:30.109Z,53.52
2023-04-14T18:23:16.463Z,57.06
2023-04-14T18:28:52.285Z,59.25
2023-04-14T18:31:38.787Z,62.59
2023-04-14T18:34:25.540Z,64.90
2023-04-14T18:37:12.242Z,66.94
2023-04-14T18:39:58.481Z,68.50
2023-04-14T18:42:44.938Z,70.64
2023-04-14T18:45:31.152Z,71.94
2023-04-14T18:48:17.615Z,72.46
2023-04-14T18:51:07.869Z,73.28
2023-04-14T18:53:54.492Z,75.53
2023-04-14T18:56:40.903Z,76.84
2023-04-14T18:59:27.616Z,78.62
2023-04-14T19:02:14.237Z,79.54
2023-04-14T19:05:01.269Z,78.88
2023-04-14T19:07:47.832Z,80.29
2023-04-14T19:10:36.226Z,73.04
2023-04-14T19:13:23.976Z,73.80
2023-04-14T19:16:13.414Z,75.74
2023-04-14T19:19:00.882Z,77.19
2023-04-14T19:21:47.804Z,79.20
2023-04-14T19:24:35.837Z,81.66
2023-04-14T19:27:22.340Z,84.05
2023-04-14T19:30:09.118Z,85.30
2023-04-14T19:32:55.641Z,84.35
2023-04-14T19:35:44.330Z,86.49
2023-04-14T19:38:30.993Z,87.30
2023-04-14T19:41:17.314Z,87.51
2023-04-14T19:44:04.615Z,87.57
2023-04-14T19:46:51.642Z,90.34
2023-04-14T19:49:38.058Z,92.58
2023-04-14T19:52:24.734Z,91.75
2023-04-14T19:55:10.968Z,95.49
2023-04-14T19:57:58.066Z,96.80
2023-04-14T20:00:45.900Z,98.83
2023-04-14T20:03:34.481Z,99.77
2023-04-14T20:06:21.125Z,100.00
2023-04-14T20:09:07.336Z,100.00
2023-04-14T20:11:53.662Z,99.84
2023-04-14T20:14:40.350Z,99.70
2023-04-14T20:17:27.963Z,100.00
2023-04-14T20:20:16.471Z,100.00
2023-04-14T20:23:02.966Z,100.00
2023-04-14T20:25:50.347Z,100.00
2023-04-14T20:28:37.273Z,100.00
2023-04-14T20:31:24.466Z,100.00
2023-04-14T20:34:12.082Z,100.00
2023-04-14T20:36:58.569Z,100.00
2023-04-14T20:39:46.304Z,100.00
2023-04-14T20:42:32.624Z,100.00
2023-04-14T20:45:19.351Z,100.00
2023-04-14T20:48:06.059Z,100.00
2023-04-14T20:50:52.933Z,100.00
2023-04-14T20:53:39.663Z,100.00
2023-04-14T20:56:28.491Z,100.00
2023-04-14T20:59:16.445Z,100.00
2023-04-14T21:02:03.299Z,100.00
2023-04-14T21:04:50.237Z,100.00
2023-04-14T21:07:38.167Z,100.00
2023-04-14T21:10:24.919Z,100.00
2023-04-14T21:15:27.144Z,100.00
2023-04-14T21:16:18.186Z,100.00
2023-04-14T21:19:05.432Z,100.00
2023-04-14T21:21:52.308Z,100.00
2023-04-14T21:24:39.433Z,100.00
2023-04-14T21:27:27.948Z,100.00
2023-04-14T21:30:14.114Z,100.00
2023-04-14T21:33:00.750Z,100.00
2023-04-14T21:35:47.154Z,100.00
2023-04-14T21:38:33.732Z,100.00
2023-04-14T21:41:20.877Z,100.00
2023-04-14T21:44:08.982Z,100.00
2023-04-14T21:46:55.696Z,100.00
2023-04-14T21:49:42.240Z,100.00
2023-04-14T21:52:28.705Z,100.00
2023-04-14T21:55:14.846Z,100.00
2023-04-14T21:58:01.622Z,100.00
2023-04-14T22:00:48.178Z,100.00
2023-04-14T22:03:37.180Z,100.00
2023-04-14T22:06:24.900Z,100.00
2023-04-14T22:09:11.548Z,100.00
2023-04-14T22:11:58.669Z,100.00
2023-04-14T22:14:45.489Z,100.00
2023-04-14T22:17:32.629Z,100.00
2023-04-14T22:20:19.410Z,100.00
2023-04-14T22:23:06.039Z,100.00
2023-04-14T22:25:53.051Z,100.00
2023-04-14T22:28:39.933Z,100.00
2023-04-14T22:31:27.772Z,100.00
2023-04-14T22:34:14.345Z,100.00
2023-04-14T22:37:00.963Z,100.00
2023-04-14T22:39:47.433Z,100.00
2023-04-14T22:42:34.049Z,100.00
2023-04-14T22:45:20.116Z,100.00
2023-04-14T22:48:09.720Z,100.00
2023-04-14T22:50:56.544Z,100.00
2023-04-14T22:53:42.883Z,100.00
2023-04-14T22:56:29.137Z,100.00
2023-04-14T22:59:16.776Z,100.00
2023-04-14T23:02:03.883Z,100.00
2023-04-14T23:04:50.677Z,100.00
2023-04-14T23:07:41.233Z,100.00
2023-04-14T23:10:28.442Z,100.00
2023-04-14T23:13:14.868Z,100.00
2023-04-14T23:16:01.418Z,100.00
2023-04-14T23:18:52.871Z,100.00
2023-04-14T23:21:39.610Z,100.00
2023-04-14T23:24:26.033Z,100.00
2023-04-14T23:27:12.859Z,100.00
2023-04-14T23:29:59.163Z,100.00
2023-04-14T23:32:45.643Z,100.00
2023-04-14T23:35:31.773Z,100.00
2023-04-14T23:38:19.456Z,100.00
2023-04-14T23:41:06.151Z,100.00
2023-04-14T23:43:52.348Z,100.00
2023-04-14T23:46:39.632Z,100.00
2023-04-14T23:49:34.159Z,100.00
2023-04-14T23:52:22.072Z,100.00
2023-04-14T23:55:09.666Z,100.00
